sensor_id;sensor_type;location;lat;lon;timestamp;pressure;altitude;pressure_sealevel;temperature;humidity
56582;BME280;42463;52.214;21.238;2023-08-06T00:00:11;99209.55;;;21.25;80.94
56582;BME280;42463;52.214;21.238;2023-08-06T00:02:39;99205.64;;;21.26;80.90
56582;BME280;42463;52.214;21.238;2023-08-06T00:04:45;99198.94;;;21.28;81.29
56582;BME280;42463;52.214;21.238;2023-08-06T00:06:50;99199.41;;;21.32;81.09
56582;BME280;42463;52.214;21.238;2023-08-06T00:08:56;99197.54;;;21.32;80.94
56582;BME280;42463;52.214;21.238;2023-08-06T00:11:02;99193.48;;;21.31;80.92
56582;BME280;42463;52.214;21.238;2023-08-06T00:13:07;99189.69;;;21.33;81.02
56582;BME280;42463;52.214;21.238;2023-08-06T00:15:13;99183.86;;;21.34;80.94
56582;BME280;42463;52.214;21.238;2023-08-06T00:17:19;99179.30;;;21.34;81.07
56582;BME280;42463;52.214;21.238;2023-08-06T00:19:25;99181.73;;;21.33;80.71
56582;BME280;42463;52.214;21.238;2023-08-06T00:21:31;99183.88;;;21.31;80.83
56582;BME280;42463;52.214;21.238;2023-08-06T00:23:36;99181.96;;;21.30;80.65
56582;BME280;42463;52.214;21.238;2023-08-06T00:25:42;99179.55;;;21.29;80.79
56582;BME280;42463;52.214;21.238;2023-08-06T00:27:47;99176.59;;;21.29;81.03
56582;BME280;42463;52.214;21.238;2023-08-06T00:29:55;99171.80;;;21.31;81.01
56582;BME280;42463;52.214;21.238;2023-08-06T00:32:00;99174.54;;;21.33;81.22
56582;BME280;42463;52.214;21.238;2023-08-06T00:34:05;99173.50;;;21.32;80.84
56582;BME280;42463;52.214;21.238;2023-08-06T00:36:11;99179.58;;;21.29;80.66
56582;BME280;42463;52.214;21.238;2023-08-06T00:38:16;99177.98;;;21.26;80.56
56582;BME280;42463;52.214;21.238;2023-08-06T00:40:22;99176.45;;;21.24;80.90
56582;BME280;42463;52.214;21.238;2023-08-06T00:42:28;99179.50;;;21.23;81.00
56582;BME280;42463;52.214;21.238;2023-08-06T00:44:34;99190.11;;;21.20;80.85
56582;BME280;42463;52.214;21.238;2023-08-06T00:46:41;99192.23;;;21.17;80.83
56582;BME280;42463;52.214;21.238;2023-08-06T00:48:48;99187.73;;;21.14;81.14
56582;BME280;42463;52.214;21.238;2023-08-06T00:50:56;99190.37;;;21.12;81.36
56582;BME280;42463;52.214;21.238;2023-08-06T00:53:03;99178.34;;;21.13;81.68
56582;BME280;42463;52.214;21.238;2023-08-06T00:55:10;99176.80;;;21.14;81.98
56582;BME280;42463;52.214;21.238;2023-08-06T00:57:16;99182.58;;;21.19;82.12
56582;BME280;42463;52.214;21.238;2023-08-06T00:59:22;99176.69;;;21.20;81.85
56582;BME280;42463;52.214;21.238;2023-08-06T01:03:59;99154.98;;;21.21;81.69
56582;BME280;42463;52.214;21.238;2023-08-06T01:06:05;99155.64;;;21.24;81.82
56582;BME280;42463;52.214;21.238;2023-08-06T01:08:28;99153.32;;;21.26;81.72
56582;BME280;42463;52.214;21.238;2023-08-06T01:10:49;99146.98;;;21.25;81.42
56582;BME280;42463;52.214;21.238;2023-08-06T01:13:08;99146.34;;;21.24;81.45
56582;BME280;42463;52.214;21.238;2023-08-06T01:15:20;99138.54;;;21.24;81.34
56582;BME280;42463;52.214;21.238;2023-08-06T01:17:27;99132.89;;;21.25;81.66
56582;BME280;42463;52.214;21.238;2023-08-06T01:19:33;99131.20;;;21.27;81.59
56582;BME280;42463;52.214;21.238;2023-08-06T01:21:39;99129.27;;;21.25;80.95
56582;BME280;42463;52.214;21.238;2023-08-06T01:23:46;99126.23;;;21.24;81.21
56582;BME280;42463;52.214;21.238;2023-08-06T01:25:58;99115.76;;;21.24;81.32
56582;BME280;42463;52.214;21.238;2023-08-06T01:28:13;99104.81;;;21.24;81.17
56582;BME280;42463;52.214;21.238;2023-08-06T01:30:25;99093.90;;;21.26;81.37
56582;BME280;42463;52.214;21.238;2023-08-06T01:32:34;99085.95;;;21.26;81.21
56582;BME280;42463;52.214;21.238;2023-08-06T01:34:44;99068.56;;;21.27;81.09
56582;BME280;42463;52.214;21.238;2023-08-06T01:36:52;99056.77;;;21.29;81.26
56582;BME280;42463;52.214;21.238;2023-08-06T01:38:59;99050.90;;;21.30;81.04
56582;BME280;42463;52.214;21.238;2023-08-06T01:41:04;99049.31;;;21.30;80.90
56582;BME280;42463;52.214;21.238;2023-08-06T01:43:13;99039.60;;;21.29;80.65
56582;BME280;42463;52.214;21.238;2023-08-06T01:45:19;99034.80;;;21.30;80.63
56582;BME280;42463;52.214;21.238;2023-08-06T01:47:24;99027.79;;;21.26;80.59
56582;BME280;42463;52.214;21.238;2023-08-06T01:49:30;99021.81;;;21.24;80.58
56582;BME280;42463;52.214;21.238;2023-08-06T01:51:35;99021.34;;;21.18;80.40
56582;BME280;42463;52.214;21.238;2023-08-06T01:53:41;99011.53;;;21.14;80.66
56582;BME280;42463;52.214;21.238;2023-08-06T01:55:50;99004.83;;;21.13;80.94
56582;BME280;42463;52.214;21.238;2023-08-06T01:57:56;99001.23;;;21.11;81.01
56582;BME280;42463;52.214;21.238;2023-08-06T02:00:01;99000.61;;;21.11;81.02
56582;BME280;42463;52.214;21.238;2023-08-06T02:02:17;98995.17;;;21.11;81.10
56582;BME280;42463;52.214;21.238;2023-08-06T02:04:22;98987.02;;;21.06;80.73
56582;BME280;42463;52.214;21.238;2023-08-06T02:06:28;98989.61;;;21.02;81.13
56582;BME280;42463;52.214;21.238;2023-08-06T02:08:34;98991.55;;;21.01;81.33
56582;BME280;42463;52.214;21.238;2023-08-06T02:10:40;98991.61;;;20.99;81.50
56582;BME280;42463;52.214;21.238;2023-08-06T02:12:45;98983.92;;;20.98;81.57
56582;BME280;42463;52.214;21.238;2023-08-06T02:14:51;98980.89;;;20.97;81.61
56582;BME280;42463;52.214;21.238;2023-08-06T02:16:57;98978.17;;;20.94;81.36
56582;BME280;42463;52.214;21.238;2023-08-06T02:19:03;98975.83;;;20.89;81.52
56582;BME280;42463;52.214;21.238;2023-08-06T02:21:09;98969.89;;;20.84;81.64
56582;BME280;42463;52.214;21.238;2023-08-06T02:23:15;98968.97;;;20.85;82.30
56582;BME280;42463;52.214;21.238;2023-08-06T02:25:23;98959.31;;;20.86;82.35
56582;BME280;42463;52.214;21.238;2023-08-06T02:27:29;98950.34;;;20.86;82.29
56582;BME280;42463;52.214;21.238;2023-08-06T02:29:34;98941.71;;;20.88;82.46
56582;BME280;42463;52.214;21.238;2023-08-06T02:31:40;98935.79;;;20.91;82.51
56582;BME280;42463;52.214;21.238;2023-08-06T02:33:45;98941.02;;;20.92;82.50
56582;BME280;42463;52.214;21.238;2023-08-06T02:35:51;98948.30;;;20.91;82.34
56582;BME280;42463;52.214;21.238;2023-08-06T02:37:56;98954.79;;;20.88;82.36
56582;BME280;42463;52.214;21.238;2023-08-06T02:40:02;98955.16;;;20.87;82.35
56582;BME280;42463;52.214;21.238;2023-08-06T02:42:09;98959.95;;;20.90;82.66
56582;BME280;42463;52.214;21.238;2023-08-06T02:44:15;98949.36;;;20.89;82.54
56582;BME280;42463;52.214;21.238;2023-08-06T02:46:21;98948.83;;;20.89;83.04
56582;BME280;42463;52.214;21.238;2023-08-06T02:48:27;98947.59;;;20.90;82.65
56582;BME280;42463;52.214;21.238;2023-08-06T02:50:39;98946.45;;;20.89;82.78
56582;BME280;42463;52.214;21.238;2023-08-06T02:52:45;98941.66;;;20.89;82.86
56582;BME280;42463;52.214;21.238;2023-08-06T02:54:50;98943.77;;;20.92;82.91
56582;BME280;42463;52.214;21.238;2023-08-06T02:57:04;98935.60;;;20.93;82.88
56582;BME280;42463;52.214;21.238;2023-08-06T02:59:11;98934.00;;;20.95;83.05
56582;BME280;42463;52.214;21.238;2023-08-06T03:01:33;98927.48;;;20.96;83.07
56582;BME280;42463;52.214;21.238;2023-08-06T03:03:43;98924.07;;;20.98;83.09
56582;BME280;42463;52.214;21.238;2023-08-06T03:05:54;98931.01;;;20.99;82.73
56582;BME280;42463;52.214;21.238;2023-08-06T03:08:07;98928.38;;;21.00;83.09
56582;BME280;42463;52.214;21.238;2023-08-06T03:10:14;98921.16;;;21.02;83.01
56582;BME280;42463;52.214;21.238;2023-08-06T03:12:20;98917.17;;;21.03;83.04
56582;BME280;42463;52.214;21.238;2023-08-06T03:14:26;98908.91;;;21.04;82.83
56582;BME280;42463;52.214;21.238;2023-08-06T03:16:32;98905.49;;;21.03;82.61
56582;BME280;42463;52.214;21.238;2023-08-06T03:18:38;98897.08;;;21.03;82.84
56582;BME280;42463;52.214;21.238;2023-08-06T03:20:45;98896.50;;;21.02;82.83
56582;BME280;42463;52.214;21.238;2023-08-06T03:22:52;98890.73;;;21.02;82.80
56582;BME280;42463;52.214;21.238;2023-08-06T03:24:58;98885.67;;;21.01;82.86
56582;BME280;42463;52.214;21.238;2023-08-06T03:27:05;98878.19;;;21.00;83.05
56582;BME280;42463;52.214;21.238;2023-08-06T03:29:11;98871.76;;;21.02;83.19
56582;BME280;42463;52.214;21.238;2023-08-06T03:31:17;98869.50;;;21.03;83.25
56582;BME280;42463;52.214;21.238;2023-08-06T03:33:23;98863.53;;;21.04;83.46
56582;BME280;42463;52.214;21.238;2023-08-06T03:35:29;98859.23;;;21.06;83.16
56582;BME280;42463;52.214;21.238;2023-08-06T03:37:35;98857.69;;;21.03;83.30
56582;BME280;42463;52.214;21.238;2023-08-06T03:39:41;98851.06;;;21.03;83.61
56582;BME280;42463;52.214;21.238;2023-08-06T03:41:47;98845.30;;;21.07;84.03
56582;BME280;42463;52.214;21.238;2023-08-06T03:43:53;98837.73;;;21.10;84.12
56582;BME280;42463;52.214;21.238;2023-08-06T03:46:02;98831.69;;;21.11;83.93
56582;BME280;42463;52.214;21.238;2023-08-06T03:48:08;98826.98;;;21.13;84.11
56582;BME280;42463;52.214;21.238;2023-08-06T03:50:14;98821.84;;;21.15;83.97
56582;BME280;42463;52.214;21.238;2023-08-06T03:52:20;98817.05;;;21.16;83.83
56582;BME280;42463;52.214;21.238;2023-08-06T03:54:25;98813.86;;;21.18;84.01
56582;BME280;42463;52.214;21.238;2023-08-06T03:56:31;98809.74;;;21.17;83.79
56582;BME280;42463;52.214;21.238;2023-08-06T03:58:37;98806.37;;;21.17;83.92
56582;BME280;42463;52.214;21.238;2023-08-06T04:00:43;98807.06;;;21.17;83.96
56582;BME280;42463;52.214;21.238;2023-08-06T04:02:48;98800.81;;;21.15;84.08
56582;BME280;42463;52.214;21.238;2023-08-06T04:04:54;98796.94;;;21.15;84.09
56582;BME280;42463;52.214;21.238;2023-08-06T04:06:59;98790.30;;;21.14;84.05
56582;BME280;42463;52.214;21.238;2023-08-06T04:09:05;98788.05;;;21.12;84.41
56582;BME280;42463;52.214;21.238;2023-08-06T04:11:11;98785.23;;;21.09;84.21
56582;BME280;42463;52.214;21.238;2023-08-06T04:13:20;98779.98;;;21.06;84.33
56582;BME280;42463;52.214;21.238;2023-08-06T04:15:25;98781.23;;;21.06;84.53
56582;BME280;42463;52.214;21.238;2023-08-06T04:17:31;98771.79;;;21.06;84.70
56582;BME280;42463;52.214;21.238;2023-08-06T04:19:37;98769.81;;;21.06;84.63
56582;BME280;42463;52.214;21.238;2023-08-06T04:21:43;98771.57;;;21.03;84.49
56582;BME280;42463;52.214;21.238;2023-08-06T04:23:48;98767.22;;;21.02;84.70
56582;BME280;42463;52.214;21.238;2023-08-06T04:25:58;98763.65;;;21.00;84.63
56582;BME280;42463;52.214;21.238;2023-08-06T04:28:07;98762.66;;;21.02;85.03
56582;BME280;42463;52.214;21.238;2023-08-06T04:30:13;98764.59;;;21.03;84.93
56582;BME280;42463;52.214;21.238;2023-08-06T04:32:20;98761.41;;;21.07;85.29
56582;BME280;42463;52.214;21.238;2023-08-06T04:34:28;98755.89;;;21.11;85.27
56582;BME280;42463;52.214;21.238;2023-08-06T04:36:34;98748.26;;;21.15;85.12
56582;BME280;42463;52.214;21.238;2023-08-06T04:38:40;98745.35;;;21.20;85.16
56582;BME280;42463;52.214;21.238;2023-08-06T04:40:49;98740.50;;;21.25;85.05
56582;BME280;42463;52.214;21.238;2023-08-06T04:42:56;98738.83;;;21.28;84.85
56582;BME280;42463;52.214;21.238;2023-08-06T04:45:02;98738.42;;;21.31;84.65
56582;BME280;42463;52.214;21.238;2023-08-06T04:47:08;98736.20;;;21.35;84.64
56582;BME280;42463;52.214;21.238;2023-08-06T04:49:13;98734.05;;;21.38;84.61
56582;BME280;42463;52.214;21.238;2023-08-06T04:51:19;98728.35;;;21.42;84.59
56582;BME280;42463;52.214;21.238;2023-08-06T04:53:24;98723.75;;;21.45;84.47
56582;BME280;42463;52.214;21.238;2023-08-06T04:55:30;98722.95;;;21.49;84.49
56582;BME280;42463;52.214;21.238;2023-08-06T04:57:35;98725.08;;;21.53;84.23
56582;BME280;42463;52.214;21.238;2023-08-06T04:59:41;98716.70;;;21.56;84.17
56582;BME280;42463;52.214;21.238;2023-08-06T05:01:47;98714.38;;;21.59;83.75
56582;BME280;42463;52.214;21.238;2023-08-06T05:03:52;98710.64;;;21.61;83.90
56582;BME280;42463;52.214;21.238;2023-08-06T05:05:58;98706.04;;;21.64;83.64
56582;BME280;42463;52.214;21.238;2023-08-06T05:08:04;98699.70;;;21.67;83.72
56582;BME280;42463;52.214;21.238;2023-08-06T05:10:10;98697.39;;;21.72;83.15
56582;BME280;42463;52.214;21.238;2023-08-06T05:12:16;98701.44;;;21.72;83.05
56582;BME280;42463;52.214;21.238;2023-08-06T05:14:21;98696.42;;;21.75;83.04
56582;BME280;42463;52.214;21.238;2023-08-06T05:16:27;98696.23;;;21.78;82.83
56582;BME280;42463;52.214;21.238;2023-08-06T05:18:32;98690.31;;;21.83;82.60
56582;BME280;42463;52.214;21.238;2023-08-06T05:20:40;98683.15;;;21.87;81.99
56582;BME280;42463;52.214;21.238;2023-08-06T05:22:46;98677.27;;;21.89;81.75
56582;BME280;42463;52.214;21.238;2023-08-06T05:24:51;98676.44;;;21.92;81.51
56582;BME280;42463;52.214;21.238;2023-08-06T05:26:57;98673.09;;;21.95;81.38
56582;BME280;42463;52.214;21.238;2023-08-06T05:29:02;98670.64;;;21.99;81.44
56582;BME280;42463;52.214;21.238;2023-08-06T05:31:08;98672.95;;;22.05;81.12
56582;BME280;42463;52.214;21.238;2023-08-06T05:33:15;98674.10;;;22.08;80.92
56582;BME280;42463;52.214;21.238;2023-08-06T05:35:20;98665.95;;;22.11;80.52
56582;BME280;42463;52.214;21.238;2023-08-06T05:37:26;98666.86;;;22.15;80.33
56582;BME280;42463;52.214;21.238;2023-08-06T05:39:32;98661.78;;;22.19;79.98
56582;BME280;42463;52.214;21.238;2023-08-06T05:41:37;98655.29;;;22.23;79.63
56582;BME280;42463;52.214;21.238;2023-08-06T05:43:42;98660.06;;;22.26;79.41
56582;BME280;42463;52.214;21.238;2023-08-06T05:45:51;98653.62;;;22.28;79.28
56582;BME280;42463;52.214;21.238;2023-08-06T05:47:57;98643.17;;;22.32;78.96
56582;BME280;42463;52.214;21.238;2023-08-06T05:50:03;98637.77;;;22.36;78.64
56582;BME280;42463;52.214;21.238;2023-08-06T05:52:09;98634.05;;;22.42;78.49
56582;BME280;42463;52.214;21.238;2023-08-06T05:54:14;98633.01;;;22.47;77.84
56582;BME280;42463;52.214;21.238;2023-08-06T05:56:20;98636.20;;;22.51;77.56
56582;BME280;42463;52.214;21.238;2023-08-06T05:58:25;98634.83;;;22.54;76.84
56582;BME280;42463;52.214;21.238;2023-08-06T06:00:33;98632.58;;;22.57;76.40
56582;BME280;42463;52.214;21.238;2023-08-06T06:02:39;98635.21;;;22.60;76.43
56582;BME280;42463;52.214;21.238;2023-08-06T06:04:45;98632.66;;;22.65;76.14
56582;BME280;42463;52.214;21.238;2023-08-06T06:06:50;98629.30;;;22.68;75.62
56582;BME280;42463;52.214;21.238;2023-08-06T06:08:56;98629.27;;;22.74;75.70
56582;BME280;42463;52.214;21.238;2023-08-06T06:11:03;98628.45;;;22.78;75.10
56582;BME280;42463;52.214;21.238;2023-08-06T06:13:09;98629.30;;;22.81;74.38
56582;BME280;42463;52.214;21.238;2023-08-06T06:15:15;98630.21;;;22.85;74.57
56582;BME280;42463;52.214;21.238;2023-08-06T06:17:21;98630.69;;;22.91;74.50
56582;BME280;42463;52.214;21.238;2023-08-06T06:19:27;98623.80;;;22.96;74.25
56582;BME280;42463;52.214;21.238;2023-08-06T06:21:32;98621.14;;;22.99;73.88
56582;BME280;42463;52.214;21.238;2023-08-06T06:23:38;98613.74;;;23.03;73.70
56582;BME280;42463;52.214;21.238;2023-08-06T06:25:46;98620.90;;;23.08;73.58
56582;BME280;42463;52.214;21.238;2023-08-06T06:27:52;98615.66;;;23.13;73.50
56582;BME280;42463;52.214;21.238;2023-08-06T06:30:00;98614.45;;;23.20;73.50
56582;BME280;42463;52.214;21.238;2023-08-06T06:32:07;98612.77;;;23.27;72.89
56582;BME280;42463;52.214;21.238;2023-08-06T06:34:13;98609.73;;;23.33;72.69
56582;BME280;42463;52.214;21.238;2023-08-06T06:36:18;98605.98;;;23.37;72.06
56582;BME280;42463;52.214;21.238;2023-08-06T06:38:24;98606.16;;;23.41;72.04
56582;BME280;42463;52.214;21.238;2023-08-06T06:40:29;98606.91;;;23.47;71.89
56582;BME280;42463;52.214;21.238;2023-08-06T06:42:35;98603.34;;;23.53;71.82
56582;BME280;42463;52.214;21.238;2023-08-06T06:44:43;98600.72;;;23.61;72.12
56582;BME280;42463;52.214;21.238;2023-08-06T06:46:48;98603.14;;;23.68;71.32
56582;BME280;42463;52.214;21.238;2023-08-06T06:48:54;98596.45;;;23.75;71.34
56582;BME280;42463;52.214;21.238;2023-08-06T06:50:59;98596.11;;;23.83;71.19
56582;BME280;42463;52.214;21.238;2023-08-06T06:53:05;98597.42;;;23.91;70.98
56582;BME280;42463;52.214;21.238;2023-08-06T06:55:11;98591.88;;;23.99;70.61
56582;BME280;42463;52.214;21.238;2023-08-06T06:57:17;98593.09;;;24.05;69.97
56582;BME280;42463;52.214;21.238;2023-08-06T06:59:23;98588.36;;;24.09;69.36
56582;BME280;42463;52.214;21.238;2023-08-06T07:01:31;98591.45;;;24.12;68.94
56582;BME280;42463;52.214;21.238;2023-08-06T07:03:37;98591.55;;;24.18;69.13
56582;BME280;42463;52.214;21.238;2023-08-06T07:05:43;98590.64;;;24.25;68.93
56582;BME280;42463;52.214;21.238;2023-08-06T07:07:49;98588.23;;;24.32;68.90
56582;BME280;42463;52.214;21.238;2023-08-06T07:09:55;98592.70;;;24.39;68.48
56582;BME280;42463;52.214;21.238;2023-08-06T07:12:01;98592.32;;;24.44;67.99
56582;BME280;42463;52.214;21.238;2023-08-06T07:14:09;98588.38;;;24.49;67.27
56582;BME280;42463;52.214;21.238;2023-08-06T07:16:14;98591.48;;;24.53;67.33
56582;BME280;42463;52.214;21.238;2023-08-06T07:18:20;98589.66;;;24.59;67.32
56582;BME280;42463;52.214;21.238;2023-08-06T07:20:26;98592.85;;;24.65;66.60
56582;BME280;42463;52.214;21.238;2023-08-06T07:22:33;98588.66;;;24.70;66.74
56582;BME280;42463;52.214;21.238;2023-08-06T07:24:39;98585.27;;;24.76;66.39
56582;BME280;42463;52.214;21.238;2023-08-06T07:26:44;98584.48;;;24.83;66.24
56582;BME280;42463;52.214;21.238;2023-08-06T07:28:50;98579.02;;;24.87;66.01
56582;BME280;42463;52.214;21.238;2023-08-06T07:30:56;98578.23;;;24.91;65.57
56582;BME280;42463;52.214;21.238;2023-08-06T07:33:01;98578.88;;;24.95;65.47
56582;BME280;42463;52.214;21.238;2023-08-06T07:35:08;98578.15;;;25.02;65.54
56582;BME280;42463;52.214;21.238;2023-08-06T07:37:17;98576.73;;;25.08;65.55
56582;BME280;42463;52.214;21.238;2023-08-06T07:39:23;98575.45;;;25.16;65.63
56582;BME280;42463;52.214;21.238;2023-08-06T07:41:30;98572.75;;;25.24;65.39
56582;BME280;42463;52.214;21.238;2023-08-06T07:43:36;98573.07;;;25.32;65.30
56582;BME280;42463;52.214;21.238;2023-08-06T07:45:44;98577.74;;;25.39;64.32
56582;BME280;42463;52.214;21.238;2023-08-06T07:47:50;98571.30;;;25.44;64.14
56582;BME280;42463;52.214;21.238;2023-08-06T07:49:55;98567.49;;;25.51;64.43
56582;BME280;42463;52.214;21.238;2023-08-06T07:52:01;98561.68;;;25.59;64.10
56582;BME280;42463;52.214;21.238;2023-08-06T07:54:09;98567.48;;;25.66;64.29
56582;BME280;42463;52.214;21.238;2023-08-06T07:56:15;98564.55;;;25.74;64.36
56582;BME280;42463;52.214;21.238;2023-08-06T07:58:21;98567.45;;;25.82;63.53
56582;BME280;42463;52.214;21.238;2023-08-06T08:00:27;98569.58;;;25.87;63.35
56582;BME280;42463;52.214;21.238;2023-08-06T08:02:32;98562.27;;;25.91;62.80
56582;BME280;42463;52.214;21.238;2023-08-06T08:04:38;98562.96;;;25.96;62.84
56582;BME280;42463;52.214;21.238;2023-08-06T08:06:44;98562.80;;;26.01;62.48
56582;BME280;42463;52.214;21.238;2023-08-06T08:08:50;98558.35;;;26.05;62.46
56582;BME280;42463;52.214;21.238;2023-08-06T08:10:59;98550.55;;;26.11;61.86
56582;BME280;42463;52.214;21.238;2023-08-06T08:13:05;98557.59;;;26.18;62.46
56582;BME280;42463;52.214;21.238;2023-08-06T08:15:12;98552.54;;;26.26;62.37
56582;BME280;42463;52.214;21.238;2023-08-06T08:17:17;98548.73;;;26.33;61.53
56582;BME280;42463;52.214;21.238;2023-08-06T08:19:23;98548.52;;;26.41;61.65
56582;BME280;42463;52.214;21.238;2023-08-06T08:21:28;98550.85;;;26.50;61.08
56582;BME280;42463;52.214;21.238;2023-08-06T08:23:34;98545.96;;;26.57;60.27
56582;BME280;42463;52.214;21.238;2023-08-06T08:25:39;98547.13;;;26.61;59.90
56582;BME280;42463;52.214;21.238;2023-08-06T08:27:45;98546.94;;;26.67;59.84
56582;BME280;42463;52.214;21.238;2023-08-06T08:29:51;98546.74;;;26.72;59.57
56582;BME280;42463;52.214;21.238;2023-08-06T08:31:58;98547.65;;;26.79;59.73
56582;BME280;42463;52.214;21.238;2023-08-06T08:34:06;98545.83;;;26.88;59.97
56582;BME280;42463;52.214;21.238;2023-08-06T08:36:12;98543.07;;;26.97;59.79
56582;BME280;42463;52.214;21.238;2023-08-06T08:38:18;98545.10;;;27.06;59.60
56582;BME280;42463;52.214;21.238;2023-08-06T08:40:32;98547.84;;;27.14;59.14
56582;BME280;42463;52.214;21.238;2023-08-06T08:42:38;98545.08;;;27.20;58.80
56582;BME280;42463;52.214;21.238;2023-08-06T08:44:44;98538.75;;;27.25;58.63
56582;BME280;42463;52.214;21.238;2023-08-06T08:46:50;98537.52;;;27.28;58.64
56582;BME280;42463;52.214;21.238;2023-08-06T08:48:57;98538.13;;;27.31;58.42
56582;BME280;42463;52.214;21.238;2023-08-06T08:51:05;98535.16;;;27.33;58.02
56582;BME280;42463;52.214;21.238;2023-08-06T08:53:11;98538.98;;;27.34;57.66
56582;BME280;42463;52.214;21.238;2023-08-06T08:55:18;98533.63;;;27.36;57.59
56582;BME280;42463;52.214;21.238;2023-08-06T08:57:26;98531.37;;;27.40;58.04
56582;BME280;42463;52.214;21.238;2023-08-06T08:59:34;98531.93;;;27.46;58.20
56582;BME280;42463;52.214;21.238;2023-08-06T09:01:41;98525.34;;;27.53;58.22
56582;BME280;42463;52.214;21.238;2023-08-06T09:03:48;98518.52;;;27.59;57.77
56582;BME280;42463;52.214;21.238;2023-08-06T09:05:55;98513.40;;;27.63;57.10
56582;BME280;42463;52.214;21.238;2023-08-06T09:08:04;98520.61;;;27.66;56.75
56582;BME280;42463;52.214;21.238;2023-08-06T09:10:12;98517.03;;;27.66;56.51
56582;BME280;42463;52.214;21.238;2023-08-06T09:12:20;98511.77;;;27.66;56.76
56582;BME280;42463;52.214;21.238;2023-08-06T09:14:26;98516.11;;;27.71;56.86
56582;BME280;42463;52.214;21.238;2023-08-06T09:16:32;98514.91;;;27.78;56.96
56582;BME280;42463;52.214;21.238;2023-08-06T09:18:40;98512.11;;;27.86;56.72
56582;BME280;42463;52.214;21.238;2023-08-06T09:20:45;98507.39;;;27.93;56.98
56582;BME280;42463;52.214;21.238;2023-08-06T09:22:53;98503.30;;;28.02;56.45
56582;BME280;42463;52.214;21.238;2023-08-06T09:24:59;98501.47;;;28.11;56.10
56582;BME280;42463;52.214;21.238;2023-08-06T09:27:05;98499.87;;;28.17;55.91
56582;BME280;42463;52.214;21.238;2023-08-06T09:29:11;98491.04;;;28.24;55.36
56582;BME280;42463;52.214;21.238;2023-08-06T09:31:17;98496.95;;;28.29;55.08
56582;BME280;42463;52.214;21.238;2023-08-06T09:33:23;98499.10;;;28.35;54.55
56582;BME280;42463;52.214;21.238;2023-08-06T09:35:31;98497.98;;;28.40;54.40
56582;BME280;42463;52.214;21.238;2023-08-06T09:37:38;98499.51;;;28.45;54.11
56582;BME280;42463;52.214;21.238;2023-08-06T09:39:43;98492.91;;;28.49;53.36
56582;BME280;42463;52.214;21.238;2023-08-06T09:41:49;98485.95;;;28.51;53.28
56582;BME280;42463;52.214;21.238;2023-08-06T09:44:00;98482.14;;;28.55;53.47
56582;BME280;42463;52.214;21.238;2023-08-06T09:46:13;98485.16;;;28.60;53.55
56582;BME280;42463;52.214;21.238;2023-08-06T09:48:25;98481.77;;;28.68;53.59
56582;BME280;42463;52.214;21.238;2023-08-06T09:50:33;98475.08;;;28.73;53.05
56582;BME280;42463;52.214;21.238;2023-08-06T09:52:40;98473.49;;;28.77;52.35
56582;BME280;42463;52.214;21.238;2023-08-06T09:54:48;98467.28;;;28.76;52.09
56582;BME280;42463;52.214;21.238;2023-08-06T09:56:56;98466.73;;;28.76;52.32
56582;BME280;42463;52.214;21.238;2023-08-06T09:59:02;98464.36;;;28.80;52.81
56582;BME280;42463;52.214;21.238;2023-08-06T10:01:09;98460.66;;;28.81;52.34
56582;BME280;42463;52.214;21.238;2023-08-06T10:03:16;98461.46;;;28.83;51.89
56582;BME280;42463;52.214;21.238;2023-08-06T10:05:23;98458.24;;;28.85;51.77
56582;BME280;42463;52.214;21.238;2023-08-06T10:07:30;98455.97;;;28.87;51.88
56582;BME280;42463;52.214;21.238;2023-08-06T10:09:36;98449.52;;;28.91;52.02
56582;BME280;42463;52.214;21.238;2023-08-06T10:11:43;98449.42;;;28.97;51.65
56582;BME280;42463;52.214;21.238;2023-08-06T10:13:57;98445.02;;;29.02;51.60
56582;BME280;42463;52.214;21.238;2023-08-06T10:16:05;98444.34;;;29.05;51.43
56582;BME280;42463;52.214;21.238;2023-08-06T10:18:10;98441.20;;;29.06;51.83
56582;BME280;42463;52.214;21.238;2023-08-06T10:20:18;98436.73;;;29.10;52.20
56582;BME280;42463;52.214;21.238;2023-08-06T10:22:27;98432.77;;;29.15;52.20
56582;BME280;42463;52.214;21.238;2023-08-06T10:24:46;98426.16;;;29.19;52.43
56582;BME280;42463;52.214;21.238;2023-08-06T10:26:58;98429.77;;;29.22;51.58
56582;BME280;42463;52.214;21.238;2023-08-06T10:29:36;98420.61;;;29.25;50.63
56582;BME280;42463;52.214;21.238;2023-08-06T10:31:55;98416.81;;;29.28;49.87
56582;BME280;42463;52.214;21.238;2023-08-06T10:34:04;98413.45;;;29.28;49.91
56582;BME280;42463;52.214;21.238;2023-08-06T10:36:10;98410.69;;;29.31;50.33
56582;BME280;42463;52.214;21.238;2023-08-06T10:38:17;98408.23;;;29.34;50.26
56582;BME280;42463;52.214;21.238;2023-08-06T10:40:23;98409.48;;;29.36;50.46
56582;BME280;42463;52.214;21.238;2023-08-06T10:42:30;98408.40;;;29.37;49.99
56582;BME280;42463;52.214;21.238;2023-08-06T10:44:37;98403.35;;;29.38;49.51
56582;BME280;42463;52.214;21.238;2023-08-06T10:46:48;98401.11;;;29.39;49.68
56582;BME280;42463;52.214;21.238;2023-08-06T10:48:58;98404.35;;;29.40;49.68
56582;BME280;42463;52.214;21.238;2023-08-06T10:51:07;98397.58;;;29.39;49.35
56582;BME280;42463;52.214;21.238;2023-08-06T10:53:13;98390.48;;;29.39;49.17
56582;BME280;42463;52.214;21.238;2023-08-06T10:55:25;98392.23;;;29.40;48.98
56582;BME280;42463;52.214;21.238;2023-08-06T10:57:30;98394.94;;;29.40;49.07
56582;BME280;42463;52.214;21.238;2023-08-06T10:59:36;98393.71;;;29.42;49.10
56582;BME280;42463;52.214;21.238;2023-08-06T11:01:42;98386.91;;;29.43;48.71
56582;BME280;42463;52.214;21.238;2023-08-06T11:03:48;98380.98;;;29.45;48.89
56582;BME280;42463;52.214;21.238;2023-08-06T11:05:55;98381.11;;;29.46;47.86